Time;durP1;ratioP1;P1;durP2;ratioP2;P2;SDS_P1;SDS_P2;PMS_P1;PMS_P2;Temp;Humidity;BMP_temperature;BMP_pressure;BME280_temperature;BME280_humidity;BME280_pressure;Samples;Min_cycle;Max_cycle;Signal;HPM_P1;HPM_P2
2021/07/08 00:00:37;;;;;;;8.60;8.00;;;;;;;;;;5077030;28;24411;-53
2021/07/08 00:03:03;;;;;;;8.52;7.93;;;;;;;;;;5079923;28;24506;-53
2021/07/08 00:05:28;;;;;;;7.95;7.45;;;;;;;;;;5074470;28;24465;-53
2021/07/08 00:07:56;;;;;;;8.20;7.70;;;;;;;;;;5078117;28;24422;-53
2021/07/08 00:10:23;;;;;;;8.53;7.93;;;;;;;;;;5075381;28;25007;-53
2021/07/08 00:12:49;;;;;;;8.50;8.00;;;;;;;;;;5074016;28;25222;-53
2021/07/08 00:15:14;;;;;;;8.90;8.33;;;;;;;;;;5079041;28;24422;-53
2021/07/08 00:17:40;;;;;;;9.20;8.50;;;;;;;;;;5068830;28;24609;-53
2021/07/08 00:20:07;;;;;;;8.73;8.23;;;;;;;;;;5086240;28;24425;-53
2021/07/08 00:22:32;;;;;;;8.43;7.82;;;;;;;;;;5077220;28;24414;-54
2021/07/08 00:24:57;;;;;;;9.18;8.57;;;;;;;;;;5080679;28;24780;-54
2021/07/08 00:27:22;;;;;;;9.13;8.52;;;;;;;;;;5083565;28;24476;-54
2021/07/08 00:29:47;;;;;;;8.90;8.30;;;;;;;;;;5077030;28;24517;-54
2021/07/08 00:32:15;;;;;;;8.00;7.40;;;;;;;;;;5075958;28;24971;-53
2021/07/08 00:34:40;;;;;;;9.00;8.40;;;;;;;;;;5071217;28;24517;-54
2021/07/08 00:37:05;;;;;;;8.17;7.67;;;;;;;;;;5074168;28;25050;-57
2021/07/08 00:39:30;;;;;;;8.40;7.80;;;;;;;;;;5081246;28;24449;-53
2021/07/08 00:41:55;;;;;;;8.80;8.30;;;;;;;;;;5078299;28;24410;-53
2021/07/08 00:44:21;;;;;;;8.38;7.80;;;;;;;;;;5072126;28;24423;-53
2021/07/08 00:46:46;;;;;;;8.00;7.50;;;;;;;;;;5072987;28;24987;-53
2021/07/08 00:49:11;;;;;;;7.82;7.32;;;;;;;;;;5073439;28;24406;-53
2021/07/08 00:51:36;;;;;;;8.17;7.67;;;;;;;;;;5075089;28;24457;-53
2021/07/08 00:54:01;;;;;;;9.02;8.43;;;;;;;;;;5078584;28;24407;-53
2021/07/08 00:56:32;;;;;;;8.70;8.00;;;;;;;;;;5075561;28;24593;-53
2021/07/08 00:59:05;;;;;;;8.40;7.80;;;;;;;;;;5068368;28;24418;-53
2021/07/08 01:01:30;;;;;;;8.30;7.70;;;;;;;;;;5072462;28;24476;-53
2021/07/08 01:03:56;;;;;;;8.68;8.07;;;;;;;;;;5088126;28;24419;-53
2021/07/08 01:06:22;;;;;;;8.87;8.37;;;;;;;;;;5065116;28;24419;-53
2021/07/08 01:08:47;;;;;;;8.70;8.10;;;;;;;;;;5067592;28;24437;-53
2021/07/08 01:11:12;;;;;;;8.30;7.80;;;;;;;;;;5080814;28;25039;-53
2021/07/08 01:13:37;;;;;;;9.47;8.87;;;;;;;;;;5080421;28;25022;-53
2021/07/08 01:16:02;;;;;;;8.77;8.18;;;;;;;;;;5076453;28;24553;-53
2021/07/08 01:18:28;;;;;;;9.47;8.67;;;;;;;;;;5078769;28;25157;-53
2021/07/08 01:20:53;;;;;;;8.70;8.20;;;;;;;;;;5088170;28;24413;-53
2021/07/08 01:23:18;;;;;;;9.07;8.38;;;;;;;;;;5082753;28;24505;-53
2021/07/08 01:25:43;;;;;;;8.40;7.80;;;;;;;;;;5072136;28;24423;-53
2021/07/08 01:28:09;;;;;;;9.37;8.77;;;;;;;;;;5088716;28;24430;-53
2021/07/08 01:30:35;;;;;;;9.33;8.53;;;;;;;;;;5079859;28;24444;-53
2021/07/08 01:33:00;;;;;;;9.40;8.70;;;;;;;;;;5072440;28;24836;-53
2021/07/08 01:35:26;;;;;;;8.30;7.70;;;;;;;;;;5072201;28;24414;-53
2021/07/08 01:37:51;;;;;;;8.60;8.10;;;;;;;;;;5071421;28;24484;-53
2021/07/08 01:40:17;;;;;;;8.97;8.27;;;;;;;;;;5087134;28;25220;-54
2021/07/08 01:42:43;;;;;;;8.80;8.10;;;;;;;;;;5082645;28;24457;-53
2021/07/08 01:45:10;;;;;;;8.30;7.70;;;;;;;;;;5079243;28;24450;-53
2021/07/08 01:47:35;;;;;;;8.70;8.10;;;;;;;;;;5077127;28;24471;-53
2021/07/08 01:50:01;;;;;;;8.70;8.10;;;;;;;;;;5074026;28;24539;-54
2021/07/08 01:52:26;;;;;;;8.40;7.90;;;;;;;;;;5074828;28;24430;-54
2021/07/08 01:54:51;;;;;;;9.60;8.90;;;;;;;;;;5074225;28;24832;-53
2021/07/08 01:57:16;;;;;;;8.32;7.82;;;;;;;;;;5085976;28;24857;-54
2021/07/08 01:59:42;;;;;;;8.50;8.00;;;;;;;;;;5069738;28;24411;-53
2021/07/08 02:02:07;;;;;;;8.82;8.23;;;;;;;;;;5073103;28;24422;-54
2021/07/08 02:04:32;;;;;;;8.20;7.70;;;;;;;;;;5075634;28;25169;-54
2021/07/08 02:06:57;;;;;;;8.57;7.97;;;;;;;;;;5094773;28;24926;-54
2021/07/08 02:09:22;;;;;;;8.50;7.90;;;;;;;;;;5072578;28;24761;-53
2021/07/08 02:11:47;;;;;;;8.37;7.77;;;;;;;;;;5074016;28;24410;-54
2021/07/08 02:14:13;;;;;;;8.07;7.50;;;;;;;;;;5074901;28;24964;-54
2021/07/08 02:16:38;;;;;;;9.43;8.80;;;;;;;;;;5071760;28;24422;-53
2021/07/08 02:19:04;;;;;;;8.50;8.00;;;;;;;;;;5083580;28;24508;-53
2021/07/08 02:21:29;;;;;;;8.50;7.80;;;;;;;;;;5072228;28;24522;-53
2021/07/08 02:23:55;;;;;;;8.57;7.97;;;;;;;;;;5087601;28;24844;-53
2021/07/08 02:26:20;;;;;;;9.20;8.50;;;;;;;;;;5085543;28;24415;-53
2021/07/08 02:28:45;;;;;;;8.90;8.30;;;;;;;;;;5076791;28;25037;-53
2021/07/08 02:31:10;;;;;;;8.10;7.50;;;;;;;;;;5075748;28;24472;-53
2021/07/08 02:33:36;;;;;;;7.70;7.20;;;;;;;;;;5078393;28;24765;-53
2021/07/08 02:36:01;;;;;;;7.40;6.90;;;;;;;;;;5080464;28;24418;-54
2021/07/08 02:38:26;;;;;;;9.30;8.50;;;;;;;;;;5083761;28;24514;-53
2021/07/08 02:40:51;;;;;;;9.60;8.77;;;;;;;;;;5078875;28;24417;-53
2021/07/08 02:43:16;;;;;;;9.10;8.50;;;;;;;;;;5076835;28;24494;-54
2021/07/08 02:45:43;;;;;;;8.70;8.10;;;;;;;;;;5074782;28;25029;-54
2021/07/08 02:48:09;;;;;;;8.77;7.88;;;;;;;;;;5073418;28;24446;-53
2021/07/08 02:50:35;;;;;;;8.05;7.45;;;;;;;;;;5079547;28;24449;-53
2021/07/08 02:53:00;;;;;;;9.60;8.70;;;;;;;;;;5072977;28;24777;-53
2021/07/08 02:55:25;;;;;;;8.47;7.77;;;;;;;;;;5082552;28;24410;-53
2021/07/08 02:57:51;;;;;;;7.67;7.07;;;;;;;;;;5072802;28;25276;-53
2021/07/08 03:00:20;;;;;;;8.50;7.90;;;;;;;;;;5068478;28;24414;-53
2021/07/08 03:02:45;;;;;;;8.65;8.05;;;;;;;;;;5078895;28;25034;-53
2021/07/08 03:05:11;;;;;;;8.63;8.03;;;;;;;;;;5074053;28;24438;-53
2021/07/08 03:07:39;;;;;;;8.80;8.00;;;;;;;;;;5071875;28;25041;-53
2021/07/08 03:10:05;;;;;;;7.93;7.43;;;;;;;;;;5078972;28;24483;-54
2021/07/08 03:12:31;;;;;;;9.00;8.40;;;;;;;;;;5078368;28;24452;-53
2021/07/08 03:14:56;;;;;;;7.83;7.23;;;;;;;;;;5081646;28;24434;-53
2021/07/08 03:17:21;;;;;;;8.73;8.10;;;;;;;;;;5077621;28;24430;-53
2021/07/08 03:19:46;;;;;;;7.85;7.20;;;;;;;;;;5070918;28;24419;-54
2021/07/08 03:22:11;;;;;;;7.00;6.40;;;;;;;;;;5071751;28;24446;-53
2021/07/08 03:24:37;;;;;;;6.87;6.37;;;;;;;;;;5077943;28;25146;-54
2021/07/08 03:27:02;;;;;;;7.93;7.03;;;;;;;;;;5079072;28;24487;-53
2021/07/08 03:29:27;;;;;;;7.20;6.60;;;;;;;;;;5069964;28;24422;-54
2021/07/08 03:31:53;;;;;;;7.90;7.30;;;;;;;;;;5071004;28;25027;-53
2021/07/08 03:34:18;;;;;;;7.70;7.00;;;;;;;;;;5071626;28;24410;-54
2021/07/08 03:36:43;;;;;;;8.60;7.90;;;;;;;;;;5067888;28;24780;-54
2021/07/08 03:39:08;;;;;;;6.13;5.73;;;;;;;;;;5070074;28;25227;-54
2021/07/08 03:41:33;;;;;;;6.50;5.90;;;;;;;;;;5073453;28;24517;-54
2021/07/08 03:43:59;;;;;;;6.53;5.60;;;;;;;;;;5070092;28;24975;-54
2021/07/08 03:46:24;;;;;;;6.18;5.68;;;;;;;;;;5071061;28;24514;-54
2021/07/08 03:48:49;;;;;;;6.30;5.80;;;;;;;;;;5073905;28;24438;-53
2021/07/08 03:51:14;;;;;;;6.43;5.93;;;;;;;;;;5082880;28;24505;-53
2021/07/08 03:53:39;;;;;;;6.40;6.00;;;;;;;;;;5083237;28;24434;-53
2021/07/08 03:56:05;;;;;;;7.10;6.50;;;;;;;;;;5074921;28;25242;-54
2021/07/08 03:58:30;;;;;;;7.32;6.20;;;;;;;;;;5074376;28;24518;-54
2021/07/08 04:00:55;;;;;;;6.18;5.72;;;;;;;;;;5082480;28;24418;-53
2021/07/08 04:03:20;;;;;;;4.90;4.60;;;;;;;;;;5071187;28;25010;-54
2021/07/08 04:05:46;;;;;;;6.77;6.27;;;;;;;;;;5068880;28;24452;-54
2021/07/08 04:08:12;;;;;;;7.65;6.40;;;;;;;;;;5070862;28;24431;-53
2021/07/08 04:10:38;;;;;;;6.80;5.80;;;;;;;;;;5081311;28;24769;-54
2021/07/08 04:13:10;;;;;;;6.78;6.20;;;;;;;;;;5086863;28;24482;-53
2021/07/08 04:15:35;;;;;;;6.10;5.70;;;;;;;;;;5086987;28;24447;-53
2021/07/08 04:18:01;;;;;;;6.10;5.50;;;;;;;;;;5081063;28;24442;-53
2021/07/08 04:20:26;;;;;;;6.38;5.88;;;;;;;;;;5071362;28;24557;-53
2021/07/08 04:22:52;;;;;;;5.63;5.13;;;;;;;;;;5090931;28;24410;-53
2021/07/08 04:25:17;;;;;;;6.32;5.93;;;;;;;;;;5092917;28;24514;-54
2021/07/08 04:27:43;;;;;;;6.20;5.70;;;;;;;;;;5072670;28;24433;-54
2021/07/08 04:30:09;;;;;;;6.57;5.50;;;;;;;;;;5067596;28;24417;-53
2021/07/08 04:32:34;;;;;;;5.97;5.35;;;;;;;;;;5067343;28;24415;-53
2021/07/08 04:35:00;;;;;;;5.80;5.30;;;;;;;;;;5080227;28;24422;-53
2021/07/08 04:37:25;;;;;;;5.50;5.00;;;;;;;;;;5078785;28;24413;-54
2021/07/08 04:39:51;;;;;;;5.37;4.97;;;;;;;;;;5073586;28;24446;-54
2021/07/08 04:42:16;;;;;;;5.30;4.90;;;;;;;;;;5088309;28;24776;-54
2021/07/08 04:44:41;;;;;;;5.17;4.77;;;;;;;;;;5094199;28;24479;-54
2021/07/08 04:47:06;;;;;;;6.15;5.75;;;;;;;;;;5090609;28;24855;-54
2021/07/08 04:49:32;;;;;;;5.17;4.80;;;;;;;;;;5082906;28;24480;-54
2021/07/08 04:51:57;;;;;;;5.65;5.22;;;;;;;;;;5087246;28;24425;-53
2021/07/08 04:54:23;;;;;;;5.28;4.78;;;;;;;;;;5088920;28;24452;-53
2021/07/08 04:56:48;;;;;;;7.47;4.93;;;;;;;;;;5102925;28;25360;-53
2021/07/08 04:59:13;;;;;;;6.50;5.60;;;;;;;;;;5097840;28;24414;-53
2021/07/08 05:01:38;;;;;;;7.30;6.50;;;;;;;;;;5092954;28;24442;-53
2021/07/08 05:04:03;;;;;;;5.45;4.97;;;;;;;;;;5093066;28;25244;-53
2021/07/08 05:06:29;;;;;;;6.20;5.70;;;;;;;;;;5102551;28;24417;-53
2021/07/08 05:08:54;;;;;;;6.47;5.00;;;;;;;;;;5087896;28;24414;-54
2021/07/08 05:11:19;;;;;;;5.90;4.90;;;;;;;;;;5085353;28;24422;-54
2021/07/08 05:13:44;;;;;;;6.97;5.70;;;;;;;;;;5095806;28;24410;-53
2021/07/08 05:16:09;;;;;;;6.70;5.40;;;;;;;;;;5089669;28;24483;-53
2021/07/08 05:18:34;;;;;;;6.00;5.50;;;;;;;;;;5106468;28;24747;-54
2021/07/08 05:21:00;;;;;;;5.50;5.10;;;;;;;;;;5106197;28;24413;-54
2021/07/08 05:23:26;;;;;;;4.53;4.23;;;;;;;;;;5098019;28;24417;-54
2021/07/08 05:25:52;;;;;;;5.35;4.85;;;;;;;;;;5100872;28;24422;-54
2021/07/08 05:28:17;;;;;;;5.10;4.70;;;;;;;;;;5106204;28;24437;-54
2021/07/08 05:30:42;;;;;;;5.30;4.40;;;;;;;;;;5108043;28;24489;-54
2021/07/08 05:33:08;;;;;;;5.40;5.00;;;;;;;;;;5087481;28;24455;-53
2021/07/08 05:35:33;;;;;;;5.60;5.20;;;;;;;;;;5089727;28;24387;-54
2021/07/08 05:37:58;;;;;;;5.83;5.40;;;;;;;;;;5090193;28;24473;-53
2021/07/08 05:40:23;;;;;;;5.87;5.00;;;;;;;;;;5089825;28;24513;-54
2021/07/08 05:42:48;;;;;;;6.40;5.90;;;;;;;;;;5088569;28;24555;-54
2021/07/08 05:45:14;;;;;;;6.97;6.27;;;;;;;;;;5089533;28;24489;-53
2021/07/08 05:47:39;;;;;;;7.57;6.90;;;;;;;;;;5089806;28;24962;-53
2021/07/08 05:50:05;;;;;;;7.40;6.80;;;;;;;;;;5089835;28;24413;-54
2021/07/08 05:52:30;;;;;;;7.30;6.60;;;;;;;;;;5086964;28;25014;-54
2021/07/08 05:54:55;;;;;;;7.80;7.00;;;;;;;;;;5089298;28;24576;-54
2021/07/08 05:57:21;;;;;;;8.30;6.70;;;;;;;;;;5089422;28;24432;-54
2021/07/08 05:59:46;;;;;;;6.70;6.10;;;;;;;;;;5088929;28;24507;-54
2021/07/08 06:02:11;;;;;;;7.50;5.97;;;;;;;;;;5088640;28;24559;-54
2021/07/08 06:04:36;;;;;;;7.20;6.00;;;;;;;;;;5088700;28;24430;-54
2021/07/08 06:07:02;;;;;;;7.27;6.57;;;;;;;;;;5089190;28;24765;-54
2021/07/08 06:09:27;;;;;;;9.30;7.47;;;;;;;;;;5089358;28;24773;-54
2021/07/08 06:11:53;;;;;;;6.30;5.70;;;;;;;;;;5083210;28;24471;-54
2021/07/08 06:14:18;;;;;;;7.45;6.50;;;;;;;;;;5088601;28;24425;-54
2021/07/08 06:16:43;;;;;;;7.53;6.17;;;;;;;;;;5100765;28;24430;-54
2021/07/08 06:19:08;;;;;;;6.70;6.00;;;;;;;;;;5089636;28;24402;-54
2021/07/08 06:21:34;;;;;;;7.10;6.30;;;;;;;;;;5082896;28;25040;-54
2021/07/08 06:23:59;;;;;;;6.37;5.87;;;;;;;;;;5069087;28;24394;-54
2021/07/08 06:26:24;;;;;;;6.60;6.00;;;;;;;;;;5069362;28;24436;-54
2021/07/08 06:28:49;;;;;;;9.52;6.60;;;;;;;;;;5096578;28;24475;-54
2021/07/08 06:31:14;;;;;;;7.13;6.53;;;;;;;;;;5090715;28;24471;-54
2021/07/08 06:33:39;;;;;;;6.00;5.50;;;;;;;;;;5089092;28;24456;-54
2021/07/08 06:36:05;;;;;;;6.33;5.83;;;;;;;;;;5089280;28;24445;-54
2021/07/08 06:38:30;;;;;;;5.97;5.47;;;;;;;;;;5090686;28;24418;-54
2021/07/08 06:40:55;;;;;;;5.70;5.20;;;;;;;;;;5090622;28;24524;-54
2021/07/08 06:43:20;;;;;;;6.20;5.70;;;;;;;;;;5093131;27;24764;-54
2021/07/08 06:45:45;;;;;;;7.10;6.40;;;;;;;;;;5091287;28;24410;-54
2021/07/08 06:48:13;;;;;;;5.70;5.20;;;;;;;;;;5096212;28;24442;-54
2021/07/08 06:50:39;;;;;;;5.47;5.07;;;;;;;;;;5090611;28;24844;-54
2021/07/08 06:53:04;;;;;;;5.18;4.70;;;;;;;;;;5100220;28;24489;-54
2021/07/08 06:55:30;;;;;;;5.77;5.30;;;;;;;;;;5099867;28;24421;-54
2021/07/08 06:57:55;;;;;;;5.37;4.87;;;;;;;;;;5091788;28;24940;-55
2021/07/08 07:00:22;;;;;;;4.60;4.30;;;;;;;;;;5091168;28;24823;-54
2021/07/08 07:02:47;;;;;;;4.80;4.40;;;;;;;;;;5086560;28;24425;-55
2021/07/08 07:05:13;;;;;;;5.20;4.80;;;;;;;;;;5088178;28;24391;-54
2021/07/08 07:07:38;;;;;;;4.68;4.28;;;;;;;;;;5088195;28;24422;-54
2021/07/08 07:10:04;;;;;;;4.30;4.00;;;;;;;;;;5087974;28;24493;-54
2021/07/08 07:12:29;;;;;;;4.50;4.10;;;;;;;;;;5086299;28;24449;-55
2021/07/08 07:14:54;;;;;;;4.28;3.90;;;;;;;;;;5088202;28;24498;-54
2021/07/08 07:17:19;;;;;;;4.43;3.95;;;;;;;;;;5087895;28;24525;-54
2021/07/08 07:19:44;;;;;;;4.05;3.75;;;;;;;;;;5086010;28;24390;-55
2021/07/08 07:22:09;;;;;;;4.18;3.78;;;;;;;;;;5068012;28;24390;-55
2021/07/08 07:24:34;;;;;;;3.53;3.22;;;;;;;;;;5067178;28;24471;-55
2021/07/08 07:27:00;;;;;;;4.20;3.80;;;;;;;;;;5067609;28;24402;-55
2021/07/08 07:29:25;;;;;;;4.13;3.70;;;;;;;;;;5067769;28;24391;-55
2021/07/08 07:31:50;;;;;;;3.53;3.30;;;;;;;;;;5082091;28;24418;-55
2021/07/08 07:34:15;;;;;;;4.20;3.80;;;;;;;;;;5087386;28;24547;-55
2021/07/08 07:36:41;;;;;;;3.90;3.60;;;;;;;;;;5087822;28;24394;-55
2021/07/08 07:39:06;;;;;;;3.30;3.10;;;;;;;;;;5080133;28;24417;-54
2021/07/08 07:41:31;;;;;;;3.88;3.50;;;;;;;;;;5073505;28;24561;-55
2021/07/08 07:43:56;;;;;;;3.50;3.20;;;;;;;;;;5087439;28;24813;-54
2021/07/08 07:46:22;;;;;;;3.10;2.90;;;;;;;;;;5087361;28;24497;-55
2021/07/08 07:48:47;;;;;;;3.20;2.90;;;;;;;;;;5085684;28;24417;-55
2021/07/08 07:51:12;;;;;;;3.17;2.88;;;;;;;;;;5087544;28;24429;-55
2021/07/08 07:53:37;;;;;;;3.57;3.30;;;;;;;;;;5087007;28;24474;-55
2021/07/08 07:56:02;;;;;;;3.60;3.27;;;;;;;;;;5087383;28;24740;-55
2021/07/08 07:58:30;;;;;;;3.50;2.80;;;;;;;;;;5074676;28;24851;-55
2021/07/08 08:00:56;;;;;;;2.90;2.70;;;;;;;;;;5067243;28;24391;-55
2021/07/08 08:03:22;;;;;;;2.97;2.77;;;;;;;;;;5066868;28;24374;-55
2021/07/08 08:08:35;;;;;;;3.00;2.70;;;;;;;;;;5066645;28;25043;-54
2021/07/08 08:11:00;;;;;;;3.40;3.08;;;;;;;;;;5067021;28;24486;-55
2021/07/08 08:13:27;;;;;;;5.10;2.90;;;;;;;;;;5066892;28;24800;-54
2021/07/08 08:15:53;;;;;;;3.00;2.80;;;;;;;;;;5066750;28;24429;-54
2021/07/08 08:18:19;;;;;;;3.00;2.70;;;;;;;;;;5069340;28;24978;-55
2021/07/08 08:20:45;;;;;;;3.70;3.30;;;;;;;;;;5087318;28;24387;-55
2021/07/08 08:23:10;;;;;;;2.70;2.50;;;;;;;;;;5086994;28;24497;-55
2021/07/08 08:25:35;;;;;;;3.20;2.70;;;;;;;;;;5086264;28;24398;-55
2021/07/08 08:28:00;;;;;;;2.67;2.47;;;;;;;;;;5086971;28;24974;-56
2021/07/08 08:30:26;;;;;;;2.40;1.90;;;;;;;;;;5085235;28;24413;-55
2021/07/08 08:32:51;;;;;;;2.50;2.30;;;;;;;;;;5087185;28;24443;-55
2021/07/08 08:35:16;;;;;;;2.03;1.90;;;;;;;;;;5086705;28;24523;-56
2021/07/08 08:37:43;;;;;;;2.20;2.10;;;;;;;;;;5086542;28;24495;-55
2021/07/08 08:40:09;;;;;;;17.80;16.13;;;;;;;;;;5085318;28;24407;-55
2021/07/08 08:42:34;;;;;;;2.20;2.10;;;;;;;;;;5086558;28;24958;-55
2021/07/08 08:44:59;;;;;;;2.30;2.10;;;;;;;;;;5086674;28;24397;-55
2021/07/08 08:47:24;;;;;;;2.80;2.33;;;;;;;;;;5086643;28;24603;-55
2021/07/08 08:49:53;;;;;;;1.90;1.80;;;;;;;;;;5083955;28;24414;-55
2021/07/08 08:52:18;;;;;;;2.10;2.00;;;;;;;;;;5066383;28;24407;-55
2021/07/08 08:54:44;;;;;;;2.43;2.10;;;;;;;;;;5066342;28;24391;-55
2021/07/08 08:57:09;;;;;;;2.40;2.20;;;;;;;;;;5066446;28;24570;-56
2021/07/08 08:59:35;;;;;;;1.90;1.80;;;;;;;;;;5066462;28;24919;-55
2021/07/08 09:02:08;;;;;;;4.60;2.00;;;;;;;;;;5067048;28;24427;-56
2021/07/08 09:04:34;;;;;;;2.53;2.33;;;;;;;;;;5085719;28;24487;-56
2021/07/08 09:07:18;;;;;;;2.50;2.30;;;;;;;;;;5086666;28;25259;-56
2021/07/08 09:09:43;;;;;;;1.98;1.70;;;;;;;;;;5086286;28;24435;-56
2021/07/08 09:12:12;;;;;;;2.20;2.00;;;;;;;;;;5087039;28;24460;-55
2021/07/08 09:14:37;;;;;;;2.70;2.50;;;;;;;;;;5084802;28;24506;-54
2021/07/08 09:17:14;;;;;;;2.53;2.25;;;;;;;;;;5086309;28;24530;-55
2021/07/08 09:19:39;;;;;;;2.65;2.20;;;;;;;;;;5086695;28;24397;-55
2021/07/08 09:22:04;;;;;;;2.40;2.30;;;;;;;;;;5086544;28;24474;-55
2021/07/08 09:24:34;;;;;;;2.97;2.30;;;;;;;;;;5086229;28;24952;-55
2021/07/08 09:26:59;;;;;;;2.70;2.50;;;;;;;;;;5084716;28;24445;-55
2021/07/08 09:29:28;;;;;;;2.80;2.20;;;;;;;;;;5086622;28;24420;-56
2021/07/08 09:32:00;;;;;;;2.30;2.07;;;;;;;;;;5086595;28;24452;-55
2021/07/08 09:34:27;;;;;;;2.33;2.05;;;;;;;;;;5085697;28;25243;-56
2021/07/08 09:37:10;;;;;;;2.60;2.10;;;;;;;;;;5088276;28;24394;-55
2021/07/08 09:39:35;;;;;;;2.47;2.30;;;;;;;;;;5087898;28;24433;-55
2021/07/08 09:42:00;;;;;;;1.80;1.70;;;;;;;;;;5089843;28;24983;-55
2021/07/08 09:44:27;;;;;;;2.10;2.00;;;;;;;;;;5089733;28;24394;-55
2021/07/08 09:46:53;;;;;;;2.10;1.90;;;;;;;;;;5090164;28;24398;-55
2021/07/08 09:49:18;;;;;;;1.90;1.80;;;;;;;;;;5089853;28;24406;-55
2021/07/08 09:51:44;;;;;;;2.15;2.05;;;;;;;;;;5087914;28;24420;-55
2021/07/08 09:54:16;;;;;;;1.95;1.85;;;;;;;;;;5089863;28;24421;-55
2021/07/08 09:56:48;;;;;;;2.42;2.22;;;;;;;;;;5088901;28;25017;-55
2021/07/08 09:59:14;;;;;;;2.40;2.20;;;;;;;;;;5089732;28;24405;-54
2021/07/08 10:01:40;;;;;;;1.90;1.80;;;;;;;;;;5088497;28;24399;-54
2021/07/08 10:04:06;;;;;;;2.00;1.90;;;;;;;;;;5087895;28;24421;-54
2021/07/08 10:06:32;;;;;;;2.07;1.87;;;;;;;;;;5089119;28;24394;-54
2021/07/08 10:08:57;;;;;;;2.30;2.10;;;;;;;;;;5089448;28;24421;-55
2021/07/08 10:11:24;;;;;;;2.10;2.00;;;;;;;;;;5088962;28;24394;-54
2021/07/08 10:13:49;;;;;;;2.88;1.90;;;;;;;;;;5087379;28;24421;-54
2021/07/08 10:16:15;;;;;;;2.47;2.20;;;;;;;;;;5088947;28;24419;-55
2021/07/08 10:18:42;;;;;;;1.83;1.73;;;;;;;;;;5089397;28;24410;-55
2021/07/08 10:21:07;;;;;;;2.63;1.90;;;;;;;;;;5089331;28;24482;-55
2021/07/08 10:23:35;;;;;;;2.90;1.83;;;;;;;;;;5086707;28;24486;-55
2021/07/08 10:26:01;;;;;;;2.30;2.20;;;;;;;;;;5088277;28;24440;-55
2021/07/08 10:28:27;;;;;;;2.57;1.90;;;;;;;;;;5089130;28;24418;-56
2021/07/08 10:30:52;;;;;;;2.88;2.10;;;;;;;;;;5088750;28;24394;-54
2021/07/08 10:33:19;;;;;;;2.60;2.10;;;;;;;;;;5088864;28;24395;-55
2021/07/08 10:35:48;;;;;;;2.30;2.10;;;;;;;;;;5086439;28;24407;-55
2021/07/08 10:38:32;;;;;;;2.50;2.30;;;;;;;;;;5088945;28;24410;-55
2021/07/08 10:41:02;;;;;;;2.10;2.00;;;;;;;;;;5088840;28;24963;-55
2021/07/08 10:43:35;;;;;;;2.25;2.10;;;;;;;;;;5088631;28;24448;-56
2021/07/08 10:46:03;;;;;;;2.45;2.00;;;;;;;;;;5086547;28;24422;-55
2021/07/08 10:48:37;;;;;;;1.90;1.70;;;;;;;;;;5087888;28;24506;-55
2021/07/08 10:51:02;;;;;;;3.40;2.25;;;;;;;;;;5088510;28;24402;-55
2021/07/08 10:53:38;;;;;;;2.15;1.95;;;;;;;;;;5088497;28;24452;-55
2021/07/08 10:56:03;;;;;;;3.10;2.40;;;;;;;;;;5085486;28;24701;-55
2021/07/08 10:58:37;;;;;;;2.13;1.93;;;;;;;;;;5088508;28;24421;-55
2021/07/08 11:01:02;;;;;;;2.00;1.90;;;;;;;;;;5088185;28;24405;-55
2021/07/08 11:03:46;;;;;;;2.07;1.87;;;;;;;;;;5088327;28;24390;-55
2021/07/08 11:06:18;;;;;;;2.00;1.90;;;;;;;;;;5088145;28;24408;-55
2021/07/08 11:08:47;;;;;;;2.20;2.10;;;;;;;;;;5086100;28;24433;-55
2021/07/08 11:11:18;;;;;;;2.42;2.30;;;;;;;;;;5088252;28;24493;-55
2021/07/08 11:13:43;;;;;;;2.20;2.10;;;;;;;;;;5087903;28;24444;-55
2021/07/08 11:16:08;;;;;;;2.33;2.13;;;;;;;;;;5088202;28;24475;-55
2021/07/08 11:18:34;;;;;;;2.00;1.90;;;;;;;;;;5088135;28;24405;-55
2021/07/08 11:20:59;;;;;;;2.30;2.10;;;;;;;;;;5086355;28;24438;-55
2021/07/08 11:23:27;;;;;;;2.20;2.10;;;;;;;;;;5087930;28;24398;-55
2021/07/08 11:25:52;;;;;;;2.10;2.00;;;;;;;;;;5087859;28;24482;-55
2021/07/08 11:28:28;;;;;;;2.30;2.10;;;;;;;;;;5087672;28;24541;-55
2021/07/08 11:31:00;;;;;;;2.03;1.75;;;;;;;;;;5087923;28;24398;-55
2021/07/08 11:33:26;;;;;;;2.30;2.10;;;;;;;;;;5085395;28;24417;-55
2021/07/08 11:35:56;;;;;;;2.03;1.92;;;;;;;;;;5087460;28;24753;-55
2021/07/08 11:38:23;;;;;;;2.10;2.00;;;;;;;;;;5087439;28;25015;-56
2021/07/08 11:40:49;;;;;;;2.40;2.20;;;;;;;;;;5087677;28;24517;-56
2021/07/08 11:43:19;;;;;;;2.70;2.50;;;;;;;;;;5087522;28;24971;-55
2021/07/08 11:45:45;;;;;;;2.20;2.10;;;;;;;;;;5085708;28;24406;-55
2021/07/08 11:48:10;;;;;;;2.80;2.60;;;;;;;;;;5087615;28;24525;-55
2021/07/08 11:50:36;;;;;;;2.70;2.20;;;;;;;;;;5087519;28;24491;-55
2021/07/08 11:53:05;;;;;;;2.40;2.20;;;;;;;;;;5087409;28;24489;-55
2021/07/08 11:55:30;;;;;;;2.70;2.50;;;;;;;;;;5087018;28;24402;-56
2021/07/08 11:57:59;;;;;;;2.70;2.50;;;;;;;;;;5085722;28;24483;-55
2021/07/08 12:00:30;;;;;;;2.60;2.40;;;;;;;;;;5086678;28;24409;-55
2021/07/08 12:02:55;;;;;;;2.70;2.50;;;;;;;;;;5087583;28;24443;-55
2021/07/08 12:05:21;;;;;;;2.30;2.20;;;;;;;;;;5086442;28;24452;-55
2021/07/08 12:07:50;;;;;;;2.30;2.10;;;;;;;;;;5086930;28;24416;-56
2021/07/08 12:10:23;;;;;;;2.47;2.28;;;;;;;;;;5084473;28;24437;-55
2021/07/08 12:12:49;;;;;;;2.78;2.58;;;;;;;;;;5086854;28;25013;-55
2021/07/08 12:15:14;;;;;;;2.67;2.50;;;;;;;;;;5086964;28;24394;-55
2021/07/08 12:17:39;;;;;;;2.50;2.30;;;;;;;;;;5087146;28;24825;-55
2021/07/08 12:20:10;;;;;;;2.90;2.40;;;;;;;;;;5084652;28;21382;-55
2021/07/08 12:22:51;;;;;;;2.70;2.60;;;;;;;;;;5086879;28;24397;-55
2021/07/08 12:25:16;;;;;;;2.80;2.60;;;;;;;;;;5086875;28;24481;-56
2021/07/08 12:27:41;;;;;;;2.67;2.47;;;;;;;;;;5086707;28;24514;-55
2021/07/08 12:30:14;;;;;;;2.58;2.40;;;;;;;;;;5087532;28;24385;-55
2021/07/08 12:32:39;;;;;;;2.40;2.30;;;;;;;;;;5085071;28;25022;-56
2021/07/08 12:35:05;;;;;;;2.67;2.47;;;;;;;;;;5086699;28;24430;-56
2021/07/08 12:37:32;;;;;;;2.50;2.30;;;;;;;;;;5086654;28;24397;-55
2021/07/08 12:39:59;;;;;;;2.60;2.40;;;;;;;;;;5086660;28;24744;-56
2021/07/08 12:42:28;;;;;;;2.90;2.70;;;;;;;;;;5084717;28;24390;-60
2021/07/08 12:44:54;;;;;;;2.50;2.40;;;;;;;;;;5087037;28;24476;-56
2021/07/08 12:47:20;;;;;;;2.80;2.60;;;;;;;;;;5086366;28;24523;-56
2021/07/08 12:49:47;;;;;;;2.60;2.50;;;;;;;;;;5086725;28;24487;-56
2021/07/08 12:52:13;;;;;;;2.75;2.60;;;;;;;;;;5087073;28;24435;-55
2021/07/08 12:54:38;;;;;;;2.30;2.20;;;;;;;;;;5086064;28;24390;-56
2021/07/08 12:57:04;;;;;;;2.40;2.30;;;;;;;;;;5084915;28;24417;-55
2021/07/08 12:59:29;;;;;;;2.80;2.60;;;;;;;;;;5086841;28;24414;-56
2021/07/08 13:01:55;;;;;;;2.60;2.50;;;;;;;;;;5086893;28;24794;-55
2021/07/08 13:04:33;;;;;;;2.70;2.50;;;;;;;;;;5086583;28;24391;-56
2021/07/08 13:07:02;;;;;;;2.65;2.55;;;;;;;;;;5086572;28;24460;-55
2021/07/08 13:09:28;;;;;;;2.30;2.20;;;;;;;;;;5083288;28;24414;-55
2021/07/08 13:11:53;;;;;;;2.90;2.70;;;;;;;;;;5090275;28;24379;-55
2021/07/08 13:14:20;;;;;;;3.37;2.70;;;;;;;;;;5090028;28;24989;-55
2021/07/08 13:17:05;;;;;;;2.90;2.70;;;;;;;;;;5090270;28;24414;-55
2021/07/08 13:19:32;;;;;;;3.33;2.63;;;;;;;;;;5088659;28;24445;-55
2021/07/08 13:22:07;;;;;;;3.30;3.10;;;;;;;;;;5090797;28;24398;-56
2021/07/08 13:24:32;;;;;;;3.00;2.80;;;;;;;;;;5089632;28;24463;-55
2021/07/08 13:26:59;;;;;;;3.50;3.20;;;;;;;;;;5090239;28;24402;-55
2021/07/08 13:29:25;;;;;;;3.77;3.57;;;;;;;;;;5090602;28;24386;-55
2021/07/08 13:31:50;;;;;;;4.00;3.70;;;;;;;;;;5088089;28;24476;-55
2021/07/08 13:34:20;;;;;;;4.83;4.43;;;;;;;;;;5089490;28;24407;-55
2021/07/08 13:36:46;;;;;;;4.00;3.70;;;;;;;;;;5089856;28;24755;-55
2021/07/08 13:39:12;;;;;;;4.47;4.07;;;;;;;;;;5090369;28;24920;-55
2021/07/08 13:41:38;;;;;;;4.13;3.88;;;;;;;;;;5089668;28;24536;-55
2021/07/08 13:44:05;;;;;;;3.90;3.60;;;;;;;;;;5087743;28;24477;-55
2021/07/08 13:46:31;;;;;;;4.85;4.45;;;;;;;;;;5069475;28;24753;-55
2021/07/08 13:49:02;;;;;;;4.80;4.40;;;;;;;;;;5070211;28;24418;-55
2021/07/08 13:51:27;;;;;;;4.70;4.40;;;;;;;;;;5069782;28;24880;-55
2021/07/08 13:53:52;;;;;;;5.20;4.80;;;;;;;;;;5069596;28;25058;-55
2021/07/08 13:56:18;;;;;;;6.00;4.60;;;;;;;;;;5074884;28;24425;-55
2021/07/08 13:58:44;;;;;;;5.75;4.90;;;;;;;;;;5089679;28;24515;-55
2021/07/08 14:01:09;;;;;;;5.13;4.72;;;;;;;;;;5085968;28;24398;-55
2021/07/08 14:03:34;;;;;;;5.60;5.20;;;;;;;;;;5069252;28;24410;-55
2021/07/08 14:05:59;;;;;;;5.50;5.10;;;;;;;;;;5069235;28;24406;-55
2021/07/08 14:08:29;;;;;;;6.90;6.30;;;;;;;;;;5069388;28;24419;-55
2021/07/08 14:10:54;;;;;;;7.75;7.07;;;;;;;;;;5068986;28;24402;-55
2021/07/08 14:13:20;;;;;;;7.10;6.70;;;;;;;;;;5072797;28;24386;-55
2021/07/08 14:15:45;;;;;;;6.72;6.30;;;;;;;;;;5089274;28;24470;-54
2021/07/08 14:18:10;;;;;;;7.22;6.72;;;;;;;;;;5089266;28;24480;-55
2021/07/08 14:20:35;;;;;;;7.33;6.83;;;;;;;;;;5089262;28;25203;-55
2021/07/08 14:23:00;;;;;;;6.80;6.40;;;;;;;;;;5088747;28;24984;-55
2021/07/08 14:25:25;;;;;;;6.90;6.40;;;;;;;;;;5088979;28;24951;-54
2021/07/08 14:27:50;;;;;;;6.93;6.40;;;;;;;;;;5088978;28;24414;-55
2021/07/08 14:30:16;;;;;;;7.37;6.77;;;;;;;;;;5089401;28;24433;-54
2021/07/08 14:32:41;;;;;;;7.53;6.93;;;;;;;;;;5088854;28;24481;-55
2021/07/08 14:35:07;;;;;;;7.30;6.80;;;;;;;;;;5089083;28;24951;-55
2021/07/08 14:37:32;;;;;;;7.00;6.60;;;;;;;;;;5088597;28;24414;-54
2021/07/08 14:39:57;;;;;;;7.43;6.95;;;;;;;;;;5082178;28;24407;-54